Time;durP1;ratioP1;P1;durP2;ratioP2;P2;SDS_P1;SDS_P2;PMS_P1;PMS_P2;Temp;Humidity;BMP_temperature;BMP_pressure;BME280_temperature;BME280_humidity;BME280_pressure;Samples;Min_cycle;Max_cycle;Signal;HPM_P1;HPM_P2
2023/08/27 00:01:51;;;;;;;1.48;1.17;;;15.90;99.90;;;;;;5093832;28;20048;-62
2023/08/27 00:04:18;;;;;;;3.40;1.40;;;15.80;99.90;;;;;;5098850;22;20040;-62
2023/08/27 00:06:44;;;;;;;3.70;1.40;;;15.80;99.90;;;;;;5091137;28;20427;-62
2023/08/27 00:09:11;;;;;;;4.20;1.58;;;15.90;99.90;;;;;;5089115;28;20040;-62
2023/08/27 00:11:38;;;;;;;2.40;1.20;;;15.90;99.90;;;;;;5091127;28;20044;-63
2023/08/27 00:14:05;;;;;;;2.20;1.20;;;15.90;99.90;;;;;;5089509;28;20043;-61
2023/08/27 00:16:32;;;;;;;3.10;1.50;;;15.90;99.90;;;;;;5093234;28;20044;-61
2023/08/27 00:18:59;;;;;;;;;;;15.90;99.90;;;;;;5093932;28;20050;-61
2023/08/27 00:21:26;;;;;;;5.25;1.48;;;15.90;99.90;;;;;;5088791;28;19924;-62
2023/08/27 00:23:53;;;;;;;2.92;1.50;;;15.90;99.90;;;;;;5093214;28;20497;-62
2023/08/27 00:26:19;;;;;;;2.38;1.25;;;15.90;99.90;;;;;;5093153;28;20234;-61
2023/08/27 00:28:46;;;;;;;3.42;1.13;;;16.00;99.90;;;;;;5068803;28;20044;-60
2023/08/27 00:31:13;;;;;;;4.90;1.20;;;16.00;99.90;;;;;;5072752;28;20097;-62
2023/08/27 00:33:40;;;;;;;3.55;1.40;;;16.00;99.90;;;;;;5074810;28;20048;-62
2023/08/27 00:36:07;;;;;;;2.42;1.10;;;16.00;99.90;;;;;;5074352;28;20138;-61
2023/08/27 00:38:34;;;;;;;3.95;1.55;;;16.00;99.90;;;;;;5073861;28;20370;-62
2023/08/27 00:41:00;;;;;;;1.70;1.10;;;16.00;99.90;;;;;;5074696;28;20140;-62
2023/08/27 00:43:27;;;;;;;3.95;1.67;;;15.90;99.90;;;;;;5072575;28;20058;-61
2023/08/27 00:45:54;;;;;;;1.88;1.15;;;15.90;99.90;;;;;;5069886;28;20071;-62
2023/08/27 00:48:21;;;;;;;;;;;15.90;99.90;;;;;;5074368;28;20079;-62
2023/08/27 00:50:48;;;;;;;2.55;1.38;;;15.80;99.90;;;;;;5074750;28;19924;-60
2023/08/27 00:53:16;;;;;;;3.10;1.85;;;15.80;99.90;;;;;;5073172;28;20040;-62
2023/08/27 00:55:43;;;;;;;5.53;1.80;;;15.80;99.90;;;;;;5092485;28;20047;-62
2023/08/27 00:58:10;;;;;;;;;;;15.80;99.90;;;;;;5074182;28;20056;-62
2023/08/27 01:00:40;;;;;;;4.95;1.80;;;15.70;99.90;;;;;;5073847;28;19924;-60
2023/08/27 01:03:10;;;;;;;3.53;1.67;;;15.80;99.90;;;;;;5073890;28;20040;-62
2023/08/27 01:05:38;;;;;;;4.15;1.58;;;15.70;99.90;;;;;;5089197;28;20032;-60
2023/08/27 01:08:19;;;;;;;4.35;1.75;;;15.80;99.90;;;;;;5074103;28;20046;-61
2023/08/27 01:11:10;;;;;;;4.88;2.08;;;15.70;99.90;;;;;;5079205;28;20059;-62
2023/08/27 01:14:00;;;;;;;8.68;2.22;;;15.70;99.90;;;;;;5081569;28;20044;-62
2023/08/27 01:16:28;;;;;;;3.33;1.77;;;15.70;99.90;;;;;;5091739;28;20043;-62
2023/08/27 01:18:58;;;;;;;4.50;2.10;;;15.70;99.90;;;;;;5092071;28;20113;-61
2023/08/27 01:21:25;;;;;;;6.68;2.17;;;15.80;99.90;;;;;;5082745;28;20127;-61
2023/08/27 01:23:52;;;;;;;4.10;1.45;;;15.80;99.90;;;;;;5091008;28;20048;-62
2023/08/27 01:26:30;;;;;;;2.88;1.42;;;15.80;99.90;;;;;;5087084;28;20098;-61
2023/08/27 01:29:16;;;;;;;4.15;1.45;;;15.80;99.90;;;;;;5069171;28;20043;-60
2023/08/27 01:31:55;;;;;;;2.40;1.30;;;15.90;99.90;;;;;;5059670;28;20124;-62
2023/08/27 01:34:23;;;;;;;2.25;1.20;;;15.90;99.90;;;;;;5053810;28;20044;-61
2023/08/27 01:36:51;;;;;;;2.00;1.10;;;15.90;99.90;;;;;;5058831;28;20075;-61
2023/08/27 01:39:18;;;;;;;2.00;1.20;;;15.90;99.90;;;;;;5072036;28;20526;-61
2023/08/27 01:41:47;;;;;;;1.63;1.13;;;15.90;99.90;;;;;;5060495;28;20040;-60
2023/08/27 01:44:14;;;;;;;2.60;1.30;;;15.90;99.90;;;;;;5071664;28;20051;-62
2023/08/27 01:46:40;;;;;;;4.72;1.40;;;15.90;99.90;;;;;;5073412;28;20048;-62
2023/08/27 01:49:07;;;;;;;2.78;1.42;;;16.00;99.90;;;;;;5056848;28;20044;-62
2023/08/27 01:51:34;;;;;;;5.68;1.52;;;15.90;99.90;;;;;;5062503;28;20074;-61
2023/08/27 01:54:01;;;;;;;4.13;1.20;;;15.90;99.90;;;;;;5065164;28;20475;-60
2023/08/27 01:56:28;;;;;;;;;;;15.90;99.90;;;;;;5062092;28;20594;-62
2023/08/27 01:58:55;;;;;;;2.00;1.30;;;15.90;99.90;;;;;;5059807;28;19924;-61
2023/08/27 02:01:21;;;;;;;6.50;1.35;;;15.90;99.90;;;;;;5087916;28;20055;-61
2023/08/27 02:03:49;;;;;;;2.78;1.30;;;15.90;99.90;;;;;;5060248;23;20127;-62
2023/08/27 02:06:16;;;;;;;9.95;1.83;;;15.90;99.90;;;;;;5079739;28;20397;-61
2023/08/27 02:08:43;;;;;;;3.63;1.70;;;16.00;99.90;;;;;;5090735;28;20412;-61
2023/08/27 02:11:10;;;;;;;5.30;1.83;;;16.00;99.90;;;;;;5073012;28;20047;-61
2023/08/27 02:13:37;;;;;;;4.32;1.10;;;16.00;99.90;;;;;;5068564;28;20070;-61
2023/08/27 02:16:04;;;;;;;4.43;1.27;;;16.00;99.90;;;;;;5032098;28;20129;-60
2023/08/27 02:18:31;;;;;;;2.20;1.50;;;16.00;99.90;;;;;;5057809;28;20045;-61
2023/08/27 02:20:57;;;;;;;5.07;1.50;;;16.00;99.90;;;;;;5048153;28;20041;-62
2023/08/27 02:23:24;;;;;;;3.90;1.20;;;16.00;99.90;;;;;;5067279;28;20071;-62
2023/08/27 02:25:52;;;;;;;3.83;1.60;;;16.00;99.90;;;;;;5039042;28;20049;-62
2023/08/27 02:28:19;;;;;;;4.35;1.40;;;16.00;99.90;;;;;;5051411;28;20044;-62
2023/08/27 02:30:55;;;;;;;3.55;1.30;;;16.00;99.90;;;;;;5045067;28;20136;-61
2023/08/27 02:33:22;;;;;;;8.45;1.30;;;16.00;99.90;;;;;;5039699;28;20095;-63
2023/08/27 02:35:49;;;;;;;4.43;1.50;;;16.00;99.90;;;;;;5052937;28;20052;-63
2023/08/27 02:38:18;;;;;;;4.47;1.45;;;16.10;99.90;;;;;;5048943;28;20059;-61
2023/08/27 02:40:44;;;;;;;4.63;1.20;;;16.10;99.90;;;;;;5070966;28;20045;-62
2023/08/27 02:43:12;;;;;;;6.65;1.70;;;16.00;99.90;;;;;;5063213;28;20063;-62
2023/08/27 02:45:38;;;;;;;8.65;2.05;;;16.00;99.90;;;;;;5069888;28;20048;-63
2023/08/27 02:48:05;;;;;;;5.13;1.23;;;16.00;99.90;;;;;;5062603;28;20040;-62
2023/08/27 02:50:32;;;;;;;7.32;1.88;;;16.00;99.90;;;;;;5043607;28;20119;-62
2023/08/27 02:52:59;;;;;;;5.45;1.85;;;16.00;99.90;;;;;;5065577;28;20047;-61
2023/08/27 02:55:27;;;;;;;;;;;15.90;99.90;;;;;;5046906;28;20044;-61
2023/08/27 02:57:54;;;;;;;3.15;2.10;;;15.90;99.90;;;;;;5062994;28;19921;-62
2023/08/27 03:00:21;;;;;;;7.13;2.13;;;16.00;99.90;;;;;;5054738;28;20056;-63
2023/08/27 03:02:48;;;;;;;6.72;2.00;;;16.00;99.90;;;;;;5046156;28;20055;-63
2023/08/27 03:05:15;;;;;;;3.90;1.83;;;15.90;99.90;;;;;;5047936;28;20044;-61
2023/08/27 03:07:42;;;;;;;6.03;2.30;;;15.90;99.90;;;;;;5062204;28;20044;-63
2023/08/27 03:10:09;;;;;;;5.30;1.92;;;16.00;99.90;;;;;;5065769;28;20052;-62
2023/08/27 03:12:36;;;;;;;6.95;2.47;;;16.00;99.90;;;;;;5056303;28;20037;-62
2023/08/27 03:15:03;;;;;;;5.07;2.17;;;16.00;99.90;;;;;;5055202;28;20489;-62
2023/08/27 03:17:30;;;;;;;3.65;1.98;;;16.00;99.90;;;;;;5055740;28;20044;-62
2023/08/27 03:19:57;;;;;;;3.60;2.40;;;16.00;99.90;;;;;;5064441;28;20144;-63
2023/08/27 03:22:25;;;;;;;4.13;2.33;;;16.00;99.90;;;;;;5047964;28;20163;-61
2023/08/27 03:24:54;;;;;;;4.15;1.77;;;16.00;99.90;;;;;;5074163;28;20040;-62
2023/08/27 03:27:21;;;;;;;4.45;2.25;;;16.00;99.90;;;;;;5067700;28;20512;-61
2023/08/27 03:29:48;;;;;;;5.95;2.08;;;16.00;99.90;;;;;;5065391;28;20124;-63
2023/08/27 03:32:15;;;;;;;3.95;1.70;;;16.00;99.90;;;;;;5049632;28;20452;-60
2023/08/27 03:34:42;;;;;;;4.50;2.80;;;16.00;99.90;;;;;;5070400;28;20041;-62
2023/08/27 03:37:08;;;;;;;6.80;1.90;;;16.00;99.90;;;;;;5043832;28;20506;-63
2023/08/27 03:39:35;;;;;;;3.78;1.73;;;16.00;99.90;;;;;;5041543;28;20047;-62
2023/08/27 03:42:02;;;;;;;6.35;1.70;;;16.00;99.90;;;;;;5058385;28;20057;-63
2023/08/27 03:44:29;;;;;;;4.95;2.08;;;16.00;99.90;;;;;;5062777;28;20068;-63
2023/08/27 03:46:56;;;;;;;;;;;16.00;99.90;;;;;;5073361;28;20447;-62
2023/08/27 03:49:23;;;;;;;3.15;1.42;;;16.10;99.90;;;;;;5045022;28;19925;-61
2023/08/27 03:51:50;;;;;;;6.43;1.92;;;16.10;99.90;;;;;;5055878;28;20045;-63
2023/08/27 03:54:16;;;;;;;6.07;1.90;;;16.10;99.90;;;;;;5065903;28;20045;-62
2023/08/27 03:56:43;;;;;;;3.33;1.92;;;16.10;99.90;;;;;;5068038;28;20055;-62
2023/08/27 03:59:10;;;;;;;6.35;1.73;;;16.00;99.90;;;;;;5069798;28;20037;-63
2023/08/27 04:01:37;;;;;;;11.07;2.50;;;16.00;99.90;;;;;;5064830;28;20036;-62
2023/08/27 04:04:04;;;;;;;141.63;8.82;;;16.00;99.90;;;;;;5056452;28;20041;-62
2023/08/27 04:06:31;;;;;;;10.98;2.83;;;16.00;99.90;;;;;;5059464;28;20124;-62
2023/08/27 04:08:58;;;;;;;4.68;2.47;;;15.90;99.90;;;;;;5061657;28;20044;-60
2023/08/27 04:11:27;;;;;;;8.95;2.63;;;15.90;99.90;;;;;;5044697;28;20076;-63
2023/08/27 04:13:53;;;;;;;9.07;2.72;;;15.80;99.90;;;;;;5064760;28;20119;-63
2023/08/27 04:16:21;;;;;;;9.80;2.90;;;15.80;99.90;;;;;;5055067;28;20482;-61
2023/08/27 04:18:48;;;;;;;18.40;4.00;;;15.80;99.90;;;;;;5068207;28;20669;-62
2023/08/27 04:21:14;;;;;;;7.85;3.90;;;15.80;99.90;;;;;;5054903;28;20063;-61
2023/08/27 04:23:41;;;;;;;8.95;4.38;;;15.80;99.90;;;;;;5055092;28;20059;-63
2023/08/27 04:26:08;;;;;;;9.55;5.03;;;15.80;99.90;;;;;;5063023;28;20230;-63
2023/08/27 04:28:36;;;;;;;8.05;4.93;;;15.80;99.90;;;;;;5064344;28;20036;-61
2023/08/27 04:31:04;;;;;;;7.97;4.88;;;15.80;99.90;;;;;;5046336;28;20075;-63
2023/08/27 04:33:31;;;;;;;10.35;6.32;;;15.80;99.90;;;;;;5071351;28;20048;-62
2023/08/27 04:35:58;;;;;;;16.08;6.50;;;15.80;99.90;;;;;;5052552;28;20033;-62
2023/08/27 04:38:24;;;;;;;6.97;4.82;;;15.90;99.90;;;;;;5072351;28;20040;-63
2023/08/27 04:40:52;;;;;;;11.68;5.47;;;15.90;99.90;;;;;;5050302;28;20045;-63
2023/08/27 04:43:20;;;;;;;10.57;4.97;;;15.80;99.90;;;;;;5054815;28;20052;-61
2023/08/27 04:45:47;;;;;;;;;;;15.90;99.90;;;;;;5054712;28;20079;-63
2023/08/27 04:48:15;;;;;;;7.63;4.97;;;15.90;99.90;;;;;;5071222;28;19970;-61
2023/08/27 04:50:46;;;;;;;11.80;6.20;;;15.90;99.90;;;;;;5049997;28;20049;-61
2023/08/27 04:53:13;;;;;;;8.95;5.38;;;15.90;99.90;;;;;;5059219;28;20041;-62
2023/08/27 04:55:40;;;;;;;11.52;4.97;;;15.90;99.90;;;;;;5059575;28;20494;-62
2023/08/27 04:58:08;;;;;;;10.07;5.30;;;15.90;99.90;;;;;;5042378;28;20397;-61
2023/08/27 05:00:36;;;;;;;12.85;5.72;;;16.00;99.90;;;;;;5069293;28;20040;-62
2023/08/27 05:03:07;;;;;;;10.68;5.22;;;16.00;99.90;;;;;;5070300;28;20516;-62
2023/08/27 05:05:35;;;;;;;8.25;5.30;;;16.00;99.90;;;;;;5052929;28;20045;-63
2023/08/27 05:08:03;;;;;;;8.70;4.90;;;16.00;99.90;;;;;;5063732;28;20050;-60
2023/08/27 05:10:30;;;;;;;8.93;5.18;;;16.00;99.90;;;;;;5060168;28;20096;-62
2023/08/27 05:12:57;;;;;;;12.02;5.57;;;16.00;99.90;;;;;;5043314;28;20123;-62
2023/08/27 05:15:24;;;;;;;11.27;5.20;;;16.10;99.90;;;;;;5048449;28;20424;-61
2023/08/27 05:17:51;;;;;;;13.45;6.07;;;16.00;99.90;;;;;;5053605;28;20056;-61
2023/08/27 05:20:18;;;;;;;5.90;4.28;;;16.00;99.90;;;;;;5049301;28;20476;-62
2023/08/27 05:22:44;;;;;;;8.15;4.47;;;16.00;99.90;;;;;;5062522;28;20044;-61
2023/08/27 05:25:11;;;;;;;7.45;4.70;;;16.00;99.90;;;;;;5044995;28;20504;-62
2023/08/27 05:27:43;;;;;;;7.63;4.47;;;16.00;99.90;;;;;;5068094;28;20049;-61
2023/08/27 05:30:15;;;;;;;6.97;4.22;;;16.00;99.90;;;;;;5061830;28;20045;-62
2023/08/27 05:32:43;;;;;;;6.75;4.50;;;16.00;99.90;;;;;;5057703;28;20072;-61
2023/08/27 05:35:10;;;;;;;9.18;4.57;;;16.00;99.90;;;;;;5061418;28;20441;-62
2023/08/27 05:37:37;;;;;;;7.55;4.55;;;16.00;99.90;;;;;;5043868;28;20035;-61
2023/08/27 05:40:08;;;;;;;7.40;4.55;;;16.00;99.90;;;;;;5052300;28;20446;-62
2023/08/27 05:42:35;;;;;;;6.38;4.28;;;16.10;99.90;;;;;;5066960;28;20140;-62
2023/08/27 05:45:03;;;;;;;10.95;4.43;;;16.10;99.90;;;;;;5044879;28;20083;-62
2023/08/27 05:47:30;;;;;;;13.10;4.63;;;16.10;99.90;;;;;;5068944;28;20036;-63
2023/08/27 05:49:57;;;;;;;26.13;5.90;;;16.10;99.90;;;;;;5046844;28;20045;-61
2023/08/27 05:52:25;;;;;;;7.32;4.88;;;16.10;99.90;;;;;;5061713;28;20032;-61
2023/08/27 05:54:52;;;;;;;13.38;5.90;;;16.10;99.90;;;;;;5058838;28;20137;-63
2023/08/27 05:57:19;;;;;;;11.77;5.05;;;16.20;99.90;;;;;;5065869;28;20070;-61
2023/08/27 05:59:46;;;;;;;7.63;4.55;;;16.20;99.90;;;;;;5066251;28;20037;-63
2023/08/27 06:02:17;;;;;;;9.40;5.28;;;16.20;99.90;;;;;;5052913;28;20405;-62
2023/08/27 06:04:44;;;;;;;7.13;4.80;;;16.10;99.90;;;;;;5064435;23;20071;-63
2023/08/27 06:07:11;;;;;;;9.85;4.53;;;16.10;99.90;;;;;;5061490;28;20032;-61
2023/08/27 06:09:38;;;;;;;13.73;4.72;;;16.10;99.90;;;;;;5071284;28;20036;-61
2023/08/27 06:12:06;;;;;;;6.85;4.30;;;16.20;99.90;;;;;;5073413;28;20047;-63
2023/08/27 06:14:33;;;;;;;5.88;3.85;;;16.20;99.90;;;;;;5076509;28;20044;-62
2023/08/27 06:17:00;;;;;;;;;;;16.10;99.90;;;;;;5058604;28;20044;-63
2023/08/27 06:19:27;;;;;;;129.15;11.43;;;16.20;99.90;;;;;;5064686;28;20099;-63
2023/08/27 06:22:09;;;;;;;5.93;3.88;;;16.10;99.90;;;;;;5084279;28;20509;-62
2023/08/27 06:24:39;;;;;;;8.23;4.03;;;16.20;99.90;;;;;;5060536;28;20037;-61
2023/08/27 06:27:07;;;;;;;50.65;6.60;;;16.10;99.90;;;;;;5091730;28;20526;-62
2023/08/27 06:29:34;;;;;;;14.68;4.88;;;16.20;99.90;;;;;;5098104;28;20039;-62
2023/08/27 06:32:01;;;;;;;11.88;4.13;;;16.10;99.90;;;;;;5079412;28;20509;-62
2023/08/27 06:34:31;;;;;;;8.48;3.80;;;16.20;99.90;;;;;;5079182;28;20393;-63
2023/08/27 06:36:58;;;;;;;11.00;4.53;;;16.20;99.90;;;;;;5079061;28;20558;-62
2023/08/27 06:39:26;;;;;;;381.10;22.40;;;16.20;99.90;;;;;;5079546;28;20046;-61
2023/08/27 06:41:53;;;;;;;10.35;4.25;;;16.20;99.90;;;;;;5079561;28;20040;-62
2023/08/27 06:44:20;;;;;;;6.25;4.05;;;16.20;99.90;;;;;;5054339;28;20051;-62
2023/08/27 06:46:49;;;;;;;14.73;4.50;;;16.20;99.90;;;;;;5078874;28;20044;-61
2023/08/27 06:49:16;;;;;;;8.13;4.38;;;16.30;99.90;;;;;;5070457;28;20475;-60
2023/08/27 06:51:43;;;;;;;10.95;4.28;;;16.30;99.90;;;;;;5071310;28;20125;-63
2023/08/27 06:54:11;;;;;;;9.75;4.60;;;16.30;99.90;;;;;;5045921;28;20041;-61
2023/08/27 06:56:43;;;;;;;10.10;3.50;;;16.30;99.90;;;;;;5067129;28;20044;-62
2023/08/27 06:59:10;;;;;;;8.75;3.25;;;16.40;99.90;;;;;;5058889;28;20048;-61
2023/08/27 07:01:39;;;;;;;4.80;3.10;;;16.40;99.90;;;;;;5057797;28;20443;-60
2023/08/27 07:04:07;;;;;;;7.07;3.55;;;16.40;99.90;;;;;;5057858;28;20131;-61
2023/08/27 07:06:34;;;;;;;5.20;3.70;;;16.40;99.90;;;;;;5064042;28;20076;-63
2023/08/27 07:09:01;;;;;;;5.70;3.50;;;16.40;99.90;;;;;;5057512;28;20049;-62
2023/08/27 07:11:29;;;;;;;3.67;3.03;;;16.40;99.90;;;;;;5085868;28;20058;-62
2023/08/27 07:13:56;;;;;;;6.65;3.17;;;16.40;99.90;;;;;;5080192;23;20036;-61
2023/08/27 07:16:23;;;;;;;8.68;3.08;;;16.40;99.90;;;;;;5053570;28;20041;-62
2023/08/27 07:18:50;;;;;;;4.35;2.85;;;16.40;99.90;;;;;;5056520;28;20402;-61
2023/08/27 07:21:17;;;;;;;3.42;2.95;;;16.40;99.90;;;;;;5047445;28;20037;-63
2023/08/27 07:23:45;;;;;;;6.13;3.55;;;16.40;99.90;;;;;;5066377;28;20048;-62
2023/08/27 07:26:11;;;;;;;9.30;4.00;;;16.40;99.90;;;;;;5058860;28;20071;-62
2023/08/27 07:28:38;;;;;;;6.00;3.15;;;16.30;99.90;;;;;;5059021;28;20041;-62
2023/08/27 07:31:05;;;;;;;3.72;2.83;;;16.30;99.90;;;;;;5053782;28;20623;-62
2023/08/27 07:33:33;;;;;;;5.18;2.72;;;16.30;99.90;;;;;;5069478;28;20033;-63
2023/08/27 07:36:00;;;;;;;4.45;3.00;;;16.40;99.90;;;;;;5069755;28;20512;-62
2023/08/27 07:38:27;;;;;;;5.40;3.53;;;16.40;99.90;;;;;;5075078;28;20496;-60
2023/08/27 07:40:54;;;;;;;;;;;16.40;99.90;;;;;;5055608;28;20040;-63
2023/08/27 07:43:22;;;;;;;4.28;2.72;;;16.40;99.90;;;;;;5055455;28;19920;-60
2023/08/27 07:45:48;;;;;;;3.80;2.78;;;16.50;99.90;;;;;;5048153;28;20045;-63
2023/08/27 07:48:16;;;;;;;3.80;2.60;;;16.50;99.90;;;;;;5055649;28;20401;-63
2023/08/27 07:50:43;;;;;;;;;;;16.60;99.90;;;;;;5053143;28;20040;-61
2023/08/27 07:53:11;;;;;;;4.25;2.70;;;16.60;99.90;;;;;;5049445;28;19927;-63
2023/08/27 07:55:37;;;;;;;;;;;16.60;99.90;;;;;;5073313;28;20040;-62
2023/08/27 07:58:05;;;;;;;7.63;2.95;;;16.70;99.90;;;;;;5055217;28;19920;-63
2023/08/27 08:00:32;;;;;;;4.95;3.33;;;16.80;99.90;;;;;;5055675;28;20516;-62
2023/08/27 08:02:58;;;;;;;4.22;2.83;;;16.90;99.90;;;;;;5064238;28;20043;-61
2023/08/27 08:05:25;;;;;;;5.20;3.20;;;17.10;99.90;;;;;;5071416;22;20051;-59
2023/08/27 08:07:52;;;;;;;5.20;2.75;;;17.10;99.90;;;;;;5056882;28;20052;-61
2023/08/27 08:10:20;;;;;;;4.15;2.75;;;17.10;99.90;;;;;;5068548;28;20681;-62
2023/08/27 08:12:49;;;;;;;4.88;2.80;;;17.20;99.90;;;;;;5055026;28;20467;-63
2023/08/27 08:15:16;;;;;;;7.13;3.25;;;17.20;99.90;;;;;;5083723;28;20036;-63
2023/08/27 08:17:44;;;;;;;;;;;17.20;99.90;;;;;;5092333;28;20093;-62
2023/08/27 08:20:25;;;;;;;2.65;2.22;;;17.10;99.90;;;;;;5079216;28;19935;-62
2023/08/27 08:22:52;;;;;;;6.90;2.22;;;17.00;99.90;;;;;;5093397;28;20044;-63
2023/08/27 08:25:21;;;;;;;5.00;2.47;;;16.90;99.90;;;;;;5074619;28;20048;-63
2023/08/27 08:27:48;;;;;;;5.53;1.90;;;16.90;99.90;;;;;;5082906;28;20071;-63
2023/08/27 08:30:15;;;;;;;3.55;2.10;;;16.80;99.90;;;;;;5093279;28;20050;-62
2023/08/27 08:32:42;;;;;;;4.50;2.20;;;16.80;99.90;;;;;;5091352;28;20036;-63
2023/08/27 08:35:08;;;;;;;4.88;2.35;;;16.80;99.90;;;;;;5085686;28;20129;-63
2023/08/27 08:37:35;;;;;;;3.67;1.90;;;16.90;99.90;;;;;;5092279;28;20054;-62
2023/08/27 08:40:02;;;;;;;2.88;2.03;;;16.90;99.90;;;;;;5085134;28;20032;-63
2023/08/27 08:42:39;;;;;;;5.25;2.20;;;17.00;99.90;;;;;;5085653;28;20047;-62
2023/08/27 08:45:09;;;;;;;2.55;1.90;;;17.10;99.90;;;;;;5084112;28;20040;-63
2023/08/27 08:47:36;;;;;;;3.40;1.80;;;17.20;99.90;;;;;;5084738;28;20091;-62
2023/08/27 08:50:04;;;;;;;;;;;17.30;99.90;;;;;;5076253;28;20044;-63
2023/08/27 08:52:36;;;;;;;2.80;1.88;;;17.50;99.90;;;;;;5081610;28;20535;-63
2023/08/27 08:55:08;;;;;;;2.55;1.67;;;17.70;99.90;;;;;;5076284;28;20077;-63
2023/08/27 08:57:43;;;;;;;4.53;1.80;;;17.80;99.90;;;;;;5092187;28;20036;-63
2023/08/27 09:00:11;;;;;;;2.65;1.75;;;17.90;99.90;;;;;;5084697;28;20036;-62
2023/08/27 09:02:39;;;;;;;2.17;1.63;;;18.00;99.90;;;;;;5092520;28;20443;-61
2023/08/27 09:05:09;;;;;;;3.05;1.70;;;18.10;99.90;;;;;;5092353;28;20040;-63
2023/08/27 09:07:40;;;;;;;1.85;1.20;;;18.20;99.90;;;;;;5083897;28;20048;-63
2023/08/27 09:10:09;;;;;;;3.03;1.60;;;18.20;99.90;;;;;;5086928;28;20036;-62
2023/08/27 09:12:39;;;;;;;2.22;1.52;;;18.10;99.90;;;;;;5091164;28;20093;-62
2023/08/27 09:15:10;;;;;;;1.73;1.20;;;18.10;99.90;;;;;;5091919;28;20480;-63
2023/08/27 09:17:39;;;;;;;2.30;1.40;;;18.10;99.90;;;;;;5091694;28;20493;-63
2023/08/27 09:20:07;;;;;;;1.63;1.40;;;18.10;99.90;;;;;;5079890;28;20044;-63
2023/08/27 09:22:35;;;;;;;6.78;1.67;;;18.20;99.90;;;;;;5084930;28;20070;-63
2023/08/27 09:25:04;;;;;;;1.98;1.20;;;18.30;99.90;;;;;;5075212;28;20441;-63
2023/08/27 09:27:32;;;;;;;1.48;1.20;;;18.30;99.90;;;;;;5080391;28;20040;-63
2023/08/27 09:30:00;;;;;;;2.13;1.40;;;18.40;99.90;;;;;;5082506;28;20039;-63
2023/08/27 09:32:28;;;;;;;1.58;1.42;;;18.50;99.90;;;;;;5088287;28;20036;-62
2023/08/27 09:35:03;;;;;;;2.53;1.70;;;18.60;99.90;;;;;;5089535;28;20113;-63
2023/08/27 09:37:42;;;;;;;4.20;1.60;;;18.80;99.90;;;;;;5089972;28;20040;-62
2023/08/27 09:40:10;;;;;;;2.90;1.30;;;18.90;99.90;;;;;;5080495;28;20032;-63
2023/08/27 09:42:38;;;;;;;2.42;1.55;;;19.00;99.90;;;;;;5078591;28;20044;-63
2023/08/27 09:45:05;;;;;;;;;;;19.00;99.90;;;;;;5088466;28;20037;-63
2023/08/27 09:47:35;;;;;;;4.50;1.80;;;18.80;99.90;;;;;;5077177;28;19977;-62
2023/08/27 09:50:04;;;;;;;2.42;1.73;;;18.70;99.90;;;;;;5078935;28;20127;-61
2023/08/27 09:52:31;;;;;;;4.03;1.80;;;18.70;99.90;;;;;;5085757;28;20037;-61
2023/08/27 09:54:58;;;;;;;1.90;1.70;;;18.70;99.90;;;;;;5075641;28;20497;-61
2023/08/27 09:57:28;;;;;;;2.65;2.25;;;18.80;99.90;;;;;;5083063;28;20040;-62
2023/08/27 09:59:55;;;;;;;1.98;1.50;;;18.90;99.90;;;;;;5090868;28;20524;-63
2023/08/27 10:02:22;;;;;;;3.10;1.55;;;18.90;99.90;;;;;;5077878;28;20040;-63
2023/08/27 10:04:56;;;;;;;3.10;1.50;;;18.80;99.90;;;;;;5088616;28;20101;-60
2023/08/27 10:07:23;;;;;;;2.20;1.58;;;18.70;99.90;;;;;;5083080;28;20040;-61
2023/08/27 10:09:51;;;;;;;2.33;1.50;;;18.60;99.90;;;;;;5090601;28;20062;-62
2023/08/27 10:12:20;;;;;;;2.05;1.58;;;18.50;99.90;;;;;;5085751;28;20043;-62
2023/08/27 10:14:47;;;;;;;1.90;1.60;;;18.50;99.90;;;;;;5087757;28;20047;-62
2023/08/27 10:17:15;;;;;;;5.05;1.75;;;18.40;99.90;;;;;;5079462;28;20036;-61
2023/08/27 10:19:43;;;;;;;4.68;1.67;;;18.30;99.90;;;;;;5080895;28;20054;-62
2023/08/27 10:22:10;;;;;;;3.08;1.60;;;18.20;99.90;;;;;;5077903;28;20396;-62
2023/08/27 10:24:39;;;;;;;1.92;1.45;;;18.10;99.90;;;;;;5080338;28;20115;-62
2023/08/27 10:27:06;;;;;;;2.03;1.50;;;18.00;99.90;;;;;;5079937;28;20077;-62
2023/08/27 10:29:34;;;;;;;4.15;1.65;;;17.80;99.90;;;;;;5084463;28;20040;-60
2023/08/27 10:32:02;;;;;;;4.35;1.80;;;17.60;99.90;;;;;;5081090;28;20097;-62
2023/08/27 10:34:30;;;;;;;2.58;1.67;;;17.50;99.90;;;;;;5084738;28;20108;-60
2023/08/27 10:37:02;;;;;;;4.57;1.85;;;17.50;99.90;;;;;;5076631;28;20068;-62
2023/08/27 10:39:31;;;;;;;1.73;1.42;;;17.50;99.90;;;;;;5079796;28;20041;-61
2023/08/27 10:41:58;;;;;;;2.97;1.92;;;17.50;99.90;;;;;;5088267;28;20056;-62
2023/08/27 10:44:25;;;;;;;2.17;1.65;;;17.40;99.90;;;;;;5085194;28;20125;-61
2023/08/27 10:47:17;;;;;;;2.90;1.92;;;17.50;99.90;;;;;;5087309;28;20405;-62
2023/08/27 10:49:47;;;;;;;2.72;1.75;;;17.50;99.90;;;;;;5084637;28;20056;-62
2023/08/27 10:52:18;;;;;;;5.78;1.88;;;17.60;99.90;;;;;;5081483;28;20066;-62
2023/08/27 10:54:57;;;;;;;2.70;1.75;;;17.50;99.90;;;;;;5085282;28;20024;-62
2023/08/27 10:57:24;;;;;;;4.13;2.05;;;17.50;99.90;;;;;;5085743;28;20048;-62
2023/08/27 11:00:05;;;;;;;3.35;2.47;;;17.40;99.90;;;;;;5077707;28;20107;-62
2023/08/27 11:03:12;;;;;;;2.17;1.90;;;17.40;99.90;;;;;;5082901;28;20079;-62
2023/08/27 11:05:39;;;;;;;4.35;1.80;;;17.40;99.90;;;;;;5090722;28;20040;-61
2023/08/27 11:08:15;;;;;;;2.10;1.50;;;17.40;99.90;;;;;;5077999;28;20052;-61
2023/08/27 11:10:42;;;;;;;2.45;2.03;;;17.50;99.90;;;;;;5082992;28;20098;-61
2023/08/27 11:13:35;;;;;;;2.92;1.88;;;17.60;99.90;;;;;;5077658;28;20058;-61
2023/08/27 11:16:11;;;;;;;4.28;1.98;;;17.60;99.90;;;;;;5083024;28;20366;-61
2023/08/27 11:19:09;;;;;;;2.38;1.63;;;17.50;99.90;;;;;;5082220;28;20039;-62
2023/08/27 11:21:40;;;;;;;3.17;2.22;;;17.50;99.90;;;;;;5083271;28;20053;-59
2023/08/27 11:24:23;;;;;;;3.05;1.90;;;17.50;99.90;;;;;;5065253;28;20040;-61
2023/08/27 11:26:52;;;;;;;4.30;1.63;;;17.50;99.90;;;;;;5085416;28;20047;-62
2023/08/27 11:29:23;;;;;;;3.05;1.80;;;17.50;99.90;;;;;;5084913;28;20044;-61
2023/08/27 11:31:50;;;;;;;4.82;1.88;;;17.40;99.90;;;;;;5084654;28;20388;-61
2023/08/27 11:34:17;;;;;;;2.67;1.98;;;17.50;99.90;;;;;;5082034;28;20036;-61
2023/08/27 11:36:46;;;;;;;3.67;1.85;;;17.40;99.90;;;;;;5086875;28;20040;-62
2023/08/27 11:39:14;;;;;;;2.13;1.70;;;17.50;99.90;;;;;;5082641;28;20039;-62
2023/08/27 11:41:46;;;;;;;3.15;1.65;;;17.50;99.90;;;;;;5083039;28;20384;-62
2023/08/27 11:44:13;;;;;;;3.40;1.63;;;17.50;99.90;;;;;;5084361;28;20045;-61
2023/08/27 11:46:41;;;;;;;2.20;1.60;;;17.50;99.90;;;;;;5081078;28;20054;-61
2023/08/27 11:49:08;;;;;;;1.73;1.35;;;17.50;99.90;;;;;;5079336;28;20581;-60
2023/08/27 11:51:35;;;;;;;2.55;1.75;;;17.40;99.90;;;;;;5082423;28;20063;-61
2023/08/27 11:54:06;;;;;;;3.28;1.85;;;17.30;99.90;;;;;;5084813;28;20048;-62
2023/08/27 11:56:39;;;;;;;2.08;1.25;;;17.10;99.90;;;;;;5087118;28;20125;-61
2023/08/27 11:59:06;;;;;;;4.03;1.45;;;17.10;99.90;;;;;;5090121;28;20508;-62
2023/08/27 12:01:33;;;;;;;2.33;1.45;;;17.00;99.90;;;;;;5086825;28;20038;-60
2023/08/27 12:04:01;;;;;;;3.30;1.42;;;16.90;99.90;;;;;;5080715;28;20051;-61
2023/08/27 12:06:28;;;;;;;1.45;1.25;;;16.90;99.90;;;;;;5073276;28;20040;-62
2023/08/27 12:08:56;;;;;;;6.15;1.58;;;16.90;99.90;;;;;;5090063;28;20134;-62
2023/08/27 12:11:28;;;;;;;3.10;1.70;;;16.90;99.90;;;;;;5085333;28;20040;-62
2023/08/27 12:13:58;;;;;;;1.75;1.20;;;17.00;99.90;;;;;;5091438;28;20103;-60
2023/08/27 12:16:33;;;;;;;3.88;1.50;;;17.00;99.90;;;;;;5093514;28;20043;-60
2023/08/27 12:19:08;;;;;;;3.38;1.67;;;17.10;99.90;;;;;;5081722;28;20090;-62
2023/08/27 12:21:46;;;;;;;3.05;1.33;;;17.20;99.90;;;;;;5080872;28;20051;-61
2023/08/27 12:24:31;;;;;;;;;;;17.20;99.90;;;;;;5073647;28;20048;-62
2023/08/27 12:27:03;;;;;;;4.72;1.85;;;17.20;99.90;;;;;;5083079;28;19920;-62
2023/08/27 12:29:36;;;;;;;2.80;1.58;;;17.20;99.90;;;;;;5083324;28;20037;-61
2023/08/27 12:32:14;;;;;;;3.17;1.58;;;17.20;99.90;;;;;;5080398;28;20699;-61
2023/08/27 12:34:44;;;;;;;4.40;1.42;;;17.40;99.90;;;;;;5092777;28;20119;-61
2023/08/27 12:37:12;;;;;;;2.13;1.30;;;17.30;99.90;;;;;;5083313;28;20055;-62
2023/08/27 12:39:41;;;;;;;1.95;1.10;;;17.30;99.90;;;;;;5085225;28;20039;-62
2023/08/27 12:42:09;;;;;;;2.17;1.15;;;17.30;99.90;;;;;;5080370;28;20044;-61
2023/08/27 12:44:36;;;;;;;1.27;1.10;;;17.40;99.90;;;;;;5088342;28;20036;-62
2023/08/27 12:47:04;;;;;;;1.60;1.30;;;17.30;99.90;;;;;;5077428;28;20041;-62
2023/08/27 12:49:31;;;;;;;2.10;1.33;;;17.20;99.90;;;;;;5082993;28;20118;-62
2023/08/27 12:51:58;;;;;;;5.90;1.48;;;17.10;99.90;;;;;;5081800;28;20036;-60
2023/08/27 12:54:25;;;;;;;;;;;17.00;99.90;;;;;;5085475;28;20067;-61
2023/08/27 12:56:53;;;;;;;2.40;1.20;;;17.00;99.90;;;;;;5083785;28;19920;-61
2023/08/27 12:59:20;;;;;;;1.30;0.90;;;17.00;99.90;;;;;;5084168;28;20043;-62